sensor_id;sensor_type;location;lat;lon;timestamp;pressure;altitude;pressure_sealevel;temperature;humidity
69842;BME280;57138;51.326;-0.068;2023-08-31T00:00:34;99223.03;;;12.86;76.44
69842;BME280;57138;51.326;-0.068;2023-08-31T00:03:01;99215.31;;;12.78;76.48
69842;BME280;57138;51.326;-0.068;2023-08-31T00:05:26;99232.81;;;12.81;76.79
69842;BME280;57138;51.326;-0.068;2023-08-31T00:07:54;99231.66;;;12.76;76.64
69842;BME280;57138;51.326;-0.068;2023-08-31T00:10:19;99226.97;;;12.72;77.19
69842;BME280;57138;51.326;-0.068;2023-08-31T00:12:45;99228.56;;;12.73;76.81
69842;BME280;57138;51.326;-0.068;2023-08-31T00:15:11;99217.94;;;12.66;77.21
69842;BME280;57138;51.326;-0.068;2023-08-31T00:17:36;99227.88;;;12.66;77.59
69842;BME280;57138;51.326;-0.068;2023-08-31T00:20:03;99214.69;;;12.64;77.24
69842;BME280;57138;51.326;-0.068;2023-08-31T00:22:31;99208.97;;;12.61;77.68
69842;BME280;57138;51.326;-0.068;2023-08-31T00:24:56;99210.69;;;12.55;77.15
69842;BME280;57138;51.326;-0.068;2023-08-31T00:27:22;99220.59;;;12.54;77.75
69842;BME280;57138;51.326;-0.068;2023-08-31T00:29:48;99211.94;;;12.52;77.94
69842;BME280;57138;51.326;-0.068;2023-08-31T00:32:18;99197.22;;;12.43;78.05
69842;BME280;57138;51.326;-0.068;2023-08-31T00:34:44;99205.88;;;12.45;78.20
69842;BME280;57138;51.326;-0.068;2023-08-31T00:37:10;99197.66;;;12.40;78.28
69842;BME280;57138;51.326;-0.068;2023-08-31T00:39:35;99196.84;;;12.39;78.00
69842;BME280;57138;51.326;-0.068;2023-08-31T00:42:03;99198.94;;;12.37;78.38
69842;BME280;57138;51.326;-0.068;2023-08-31T00:44:28;99189.56;;;12.28;78.72
69842;BME280;57138;51.326;-0.068;2023-08-31T00:46:54;99204.38;;;12.31;78.57
69842;BME280;57138;51.326;-0.068;2023-08-31T00:49:19;99198.88;;;12.26;78.56
69842;BME280;57138;51.326;-0.068;2023-08-31T00:51:46;99194.09;;;12.28;78.81
69842;BME280;57138;51.326;-0.068;2023-08-31T00:54:16;99194.53;;;12.25;78.92
69842;BME280;57138;51.326;-0.068;2023-08-31T00:56:41;99188.81;;;12.21;78.75
69842;BME280;57138;51.326;-0.068;2023-08-31T00:59:07;99189.63;;;12.21;78.44
69842;BME280;57138;51.326;-0.068;2023-08-31T01:01:38;99189.63;;;12.21;78.69
69842;BME280;57138;51.326;-0.068;2023-08-31T01:07:00;99181.91;;;12.13;79.01
69842;BME280;57138;51.326;-0.068;2023-08-31T01:10:02;99196.09;;;12.14;78.90
69842;BME280;57138;51.326;-0.068;2023-08-31T01:12:39;99191.22;;;12.11;78.79
69842;BME280;57138;51.326;-0.068;2023-08-31T01:15:10;99188.59;;;12.04;78.80
69842;BME280;57138;51.326;-0.068;2023-08-31T01:17:54;99186.97;;;12.03;79.61
69842;BME280;57138;51.326;-0.068;2023-08-31T01:20:46;99185.56;;;12.00;79.79
69842;BME280;57138;51.326;-0.068;2023-08-31T01:23:19;99179.63;;;11.98;79.90
69842;BME280;57138;51.326;-0.068;2023-08-31T01:25:47;99187.44;;;12.00;79.84
69842;BME280;57138;51.326;-0.068;2023-08-31T01:28:13;99183.69;;;12.01;80.26
69842;BME280;57138;51.326;-0.068;2023-08-31T01:30:39;99182.06;;;12.00;80.19
69842;BME280;57138;51.326;-0.068;2023-08-31T01:33:06;99192.78;;;12.00;80.13
69842;BME280;57138;51.326;-0.068;2023-08-31T01:35:40;99183.69;;;12.01;80.21
69842;BME280;57138;51.326;-0.068;2023-08-31T01:38:09;99184.00;;;11.93;80.56
69842;BME280;57138;51.326;-0.068;2023-08-31T01:40:41;99201.03;;;11.98;80.57
69842;BME280;57138;51.326;-0.068;2023-08-31T01:43:10;99189.94;;;11.95;80.30
69842;BME280;57138;51.326;-0.068;2023-08-31T01:45:41;99194.25;;;11.96;81.00
69842;BME280;57138;51.326;-0.068;2023-08-31T01:48:10;99188.31;;;11.94;80.79
69842;BME280;57138;51.326;-0.068;2023-08-31T01:50:40;99196.78;;;11.91;80.58
69842;BME280;57138;51.326;-0.068;2023-08-31T01:53:10;99184.09;;;11.79;80.59
69842;BME280;57138;51.326;-0.068;2023-08-31T01:55:36;99197.44;;;11.86;80.60
69842;BME280;57138;51.326;-0.068;2023-08-31T01:58:02;99188.41;;;11.80;81.13
69842;BME280;57138;51.326;-0.068;2023-08-31T02:00:28;99190.31;;;11.73;81.06
69842;BME280;57138;51.326;-0.068;2023-08-31T02:03:00;99181.03;;;11.76;81.20
69842;BME280;57138;51.326;-0.068;2023-08-31T02:05:25;99189.31;;;11.74;81.46
69842;BME280;57138;51.326;-0.068;2023-08-31T02:07:51;99172.03;;;11.70;81.38
69842;BME280;57138;51.326;-0.068;2023-08-31T02:10:16;99187.00;;;11.78;81.02
69842;BME280;57138;51.326;-0.068;2023-08-31T02:12:41;99181.84;;;11.76;80.98
69842;BME280;57138;51.326;-0.068;2023-08-31T02:15:07;99180.06;;;11.70;81.54
69842;BME280;57138;51.326;-0.068;2023-08-31T02:17:36;99176.22;;;11.66;81.86
69842;BME280;57138;51.326;-0.068;2023-08-31T02:20:02;99181.56;;;11.66;81.83
69842;BME280;57138;51.326;-0.068;2023-08-31T02:22:34;99183.19;;;11.67;81.92
69842;BME280;57138;51.326;-0.068;2023-08-31T02:25:02;99183.63;;;11.64;81.82
69842;BME280;57138;51.326;-0.068;2023-08-31T02:27:28;99182.00;;;11.63;81.83
69842;BME280;57138;51.326;-0.068;2023-08-31T02:29:53;99184.06;;;11.61;82.19
69842;BME280;57138;51.326;-0.068;2023-08-31T02:32:19;99175.44;;;11.59;82.45
69842;BME280;57138;51.326;-0.068;2023-08-31T02:34:44;99175.00;;;11.62;82.47
69842;BME280;57138;51.326;-0.068;2023-08-31T02:37:10;99160.66;;;11.56;82.23
69842;BME280;57138;51.326;-0.068;2023-08-31T02:39:35;99170.47;;;11.62;82.40
69842;BME280;57138;51.326;-0.068;2023-08-31T02:42:01;99168.63;;;11.63;82.75
69842;BME280;57138;51.326;-0.068;2023-08-31T02:44:26;99177.69;;;11.62;83.14
69842;BME280;57138;51.326;-0.068;2023-08-31T02:46:51;99175.00;;;11.62;83.18
69842;BME280;57138;51.326;-0.068;2023-08-31T02:49:17;99169.28;;;11.58;82.90
69842;BME280;57138;51.326;-0.068;2023-08-31T02:51:42;99169.72;;;11.55;82.72
69842;BME280;57138;51.326;-0.068;2023-08-31T02:54:08;99181.25;;;11.56;82.91
69842;BME280;57138;51.326;-0.068;2023-08-31T02:56:33;99178.56;;;11.56;83.14
69842;BME280;57138;51.326;-0.068;2023-08-31T02:58:59;99170.59;;;11.49;82.82
69842;BME280;57138;51.326;-0.068;2023-08-31T03:01:25;99174.25;;;11.55;83.26
69842;BME280;57138;51.326;-0.068;2023-08-31T03:03:50;99165.63;;;11.52;83.18
69842;BME280;57138;51.326;-0.068;2023-08-31T03:06:17;99170.09;;;11.59;83.27
69842;BME280;57138;51.326;-0.068;2023-08-31T03:08:42;99169.94;;;11.54;83.06
69842;BME280;57138;51.326;-0.068;2023-08-31T03:11:07;99169.34;;;11.51;83.07
69842;BME280;57138;51.326;-0.068;2023-08-31T03:13:33;99171.41;;;11.49;83.53
69842;BME280;57138;51.326;-0.068;2023-08-31T03:15:59;99173.94;;;11.44;83.35
69842;BME280;57138;51.326;-0.068;2023-08-31T03:18:25;99183.97;;;11.49;83.45
69842;BME280;57138;51.326;-0.068;2023-08-31T03:20:50;99183.00;;;11.43;83.71
69842;BME280;57138;51.326;-0.068;2023-08-31T03:23:16;99174.38;;;11.41;83.60
69842;BME280;57138;51.326;-0.068;2023-08-31T03:25:43;99176.16;;;11.47;83.85
69842;BME280;57138;51.326;-0.068;2023-08-31T03:28:08;99175.59;;;11.45;83.74
69842;BME280;57138;51.326;-0.068;2023-08-31T03:30:35;99175.59;;;11.45;83.79
69842;BME280;57138;51.326;-0.068;2023-08-31T03:33:00;99171.25;;;11.44;83.56
69842;BME280;57138;51.326;-0.068;2023-08-31T03:35:26;99178.41;;;11.50;83.85
69842;BME280;57138;51.326;-0.068;2023-08-31T03:37:55;99164.88;;;11.45;83.57
69842;BME280;57138;51.326;-0.068;2023-08-31T03:40:21;99168.59;;;11.44;83.56
69842;BME280;57138;51.326;-0.068;2023-08-31T03:42:48;99173.94;;;11.44;83.92
69842;BME280;57138;51.326;-0.068;2023-08-31T03:45:13;99185.06;;;11.41;84.28
69842;BME280;57138;51.326;-0.068;2023-08-31T03:47:39;99174.81;;;11.38;84.48
69842;BME280;57138;51.326;-0.068;2023-08-31T03:50:06;99180.16;;;11.38;84.63
69842;BME280;57138;51.326;-0.068;2023-08-31T03:52:32;99171.97;;;11.33;84.41
69842;BME280;57138;51.326;-0.068;2023-08-31T03:54:57;99179.13;;;11.39;84.46
69842;BME280;57138;51.326;-0.068;2023-08-31T03:57:22;99171.75;;;11.35;84.44
69842;BME280;57138;51.326;-0.068;2023-08-31T03:59:48;99175.84;;;11.37;84.72
69842;BME280;57138;51.326;-0.068;2023-08-31T04:02:13;99174.66;;;11.33;84.75
69842;BME280;57138;51.326;-0.068;2023-08-31T04:04:39;99180.97;;;11.39;84.75
69842;BME280;57138;51.326;-0.068;2023-08-31T04:07:05;99175.63;;;11.39;84.76
69842;BME280;57138;51.326;-0.068;2023-08-31T04:09:32;99182.63;;;11.40;84.85
69842;BME280;57138;51.326;-0.068;2023-08-31T04:11:57;99169.47;;;11.38;84.81
69842;BME280;57138;51.326;-0.068;2023-08-31T04:14:23;99165.34;;;11.36;85.29
69842;BME280;57138;51.326;-0.068;2023-08-31T04:16:48;99169.91;;;11.35;84.89
69842;BME280;57138;51.326;-0.068;2023-08-31T04:19:16;99168.25;;;11.34;85.11
69842;BME280;57138;51.326;-0.068;2023-08-31T04:21:42;99163.34;;;11.31;85.11
69842;BME280;57138;51.326;-0.068;2023-08-31T04:24:07;99171.97;;;11.33;85.02
69842;BME280;57138;51.326;-0.068;2023-08-31T04:26:36;99161.28;;;11.33;85.51
69842;BME280;57138;51.326;-0.068;2023-08-31T04:29:03;99158.41;;;11.28;84.94
69842;BME280;57138;51.326;-0.068;2023-08-31T04:31:29;99164.59;;;11.28;85.51
69842;BME280;57138;51.326;-0.068;2023-08-31T04:33:54;99179.03;;;11.27;84.97
69842;BME280;57138;51.326;-0.068;2023-08-31T04:36:21;99179.09;;;11.21;85.16
69842;BME280;57138;51.326;-0.068;2023-08-31T04:38:48;99172.88;;;11.20;85.68
69842;BME280;57138;51.326;-0.068;2023-08-31T04:41:17;99182.19;;;11.18;86.22
69842;BME280;57138;51.326;-0.068;2023-08-31T04:43:42;99184.44;;;11.21;86.14
69842;BME280;57138;51.326;-0.068;2023-08-31T04:46:08;99185.03;;;11.23;86.05
69842;BME280;57138;51.326;-0.068;2023-08-31T04:48:33;99187.69;;;11.23;85.64
69842;BME280;57138;51.326;-0.068;2023-08-31T04:50:58;99185.84;;;11.23;86.09
69842;BME280;57138;51.326;-0.068;2023-08-31T04:53:24;99186.66;;;11.24;85.64
69842;BME280;57138;51.326;-0.068;2023-08-31T04:55:50;99179.50;;;11.18;86.12
69842;BME280;57138;51.326;-0.068;2023-08-31T04:58:15;99189.16;;;11.19;86.02
69842;BME280;57138;51.326;-0.068;2023-08-31T05:00:41;99168.84;;;11.11;86.17
69842;BME280;57138;51.326;-0.068;2023-08-31T05:03:09;99175.19;;;11.17;86.25
69842;BME280;57138;51.326;-0.068;2023-08-31T05:05:35;99195.06;;;11.27;86.49
69842;BME280;57138;51.326;-0.068;2023-08-31T05:08:01;99183.56;;;11.27;86.06
69842;BME280;57138;51.326;-0.068;2023-08-31T05:10:26;99185.19;;;11.28;86.33
69842;BME280;57138;51.326;-0.068;2023-08-31T05:12:52;99184.16;;;11.29;86.16
69842;BME280;57138;51.326;-0.068;2023-08-31T05:15:20;99182.28;;;11.29;86.42
69842;BME280;57138;51.326;-0.068;2023-08-31T05:17:45;99188.03;;;11.33;86.03
69842;BME280;57138;51.326;-0.068;2023-08-31T05:20:11;99202.38;;;11.39;86.57
69842;BME280;57138;51.326;-0.068;2023-08-31T05:22:36;99189.44;;;11.36;86.42
69842;BME280;57138;51.326;-0.068;2023-08-31T05:25:02;99185.94;;;11.35;86.48
69842;BME280;57138;51.326;-0.068;2023-08-31T05:27:29;99198.25;;;11.43;86.43
69842;BME280;57138;51.326;-0.068;2023-08-31T05:29:55;99197.00;;;11.45;86.46
69842;BME280;57138;51.326;-0.068;2023-08-31T05:32:20;99178.16;;;11.33;86.22
69842;BME280;57138;51.326;-0.068;2023-08-31T05:34:46;99195.34;;;11.44;86.63
69842;BME280;57138;51.326;-0.068;2023-08-31T05:37:11;99195.94;;;11.46;86.64
69842;BME280;57138;51.326;-0.068;2023-08-31T05:39:37;99197.00;;;11.45;86.76
69842;BME280;57138;51.326;-0.068;2023-08-31T05:42:02;99205.78;;;11.52;86.50
69842;BME280;57138;51.326;-0.068;2023-08-31T05:44:28;99189.13;;;11.50;86.98
69842;BME280;57138;51.326;-0.068;2023-08-31T05:46:53;99201.25;;;11.53;86.93
69842;BME280;57138;51.326;-0.068;2023-08-31T05:49:18;99202.06;;;11.54;87.25
69842;BME280;57138;51.326;-0.068;2023-08-31T05:51:44;99204.31;;;11.57;87.00
69842;BME280;57138;51.326;-0.068;2023-08-31T05:54:09;99205.13;;;11.57;86.72
69842;BME280;57138;51.326;-0.068;2023-08-31T05:56:37;99208.78;;;11.63;87.01
69842;BME280;57138;51.326;-0.068;2023-08-31T05:59:05;99200.91;;;11.68;86.79
69842;BME280;57138;51.326;-0.068;2023-08-31T06:01:30;99208.63;;;11.76;87.06
69842;BME280;57138;51.326;-0.068;2023-08-31T06:03:56;99216.84;;;11.81;86.90
69842;BME280;57138;51.326;-0.068;2023-08-31T06:06:21;99219.66;;;11.86;87.24
69842;BME280;57138;51.326;-0.068;2023-08-31T06:08:46;99215.97;;;11.87;87.13
69842;BME280;57138;51.326;-0.068;2023-08-31T06:11:16;99211.78;;;11.92;87.27
69842;BME280;57138;51.326;-0.068;2023-08-31T06:13:41;99217.94;;;11.99;87.10
69842;BME280;57138;51.326;-0.068;2023-08-31T06:16:07;99209.09;;;11.98;86.88
69842;BME280;57138;51.326;-0.068;2023-08-31T06:18:32;99214.34;;;12.05;86.90
69842;BME280;57138;51.326;-0.068;2023-08-31T06:20:58;99212.72;;;12.04;86.92
69842;BME280;57138;51.326;-0.068;2023-08-31T06:23:25;99221.50;;;12.11;86.83
69842;BME280;57138;51.326;-0.068;2023-08-31T06:25:50;99218.25;;;12.09;86.66
69842;BME280;57138;51.326;-0.068;2023-08-31T06:28:16;99217.75;;;12.12;86.26
69842;BME280;57138;51.326;-0.068;2023-08-31T06:30:42;99216.97;;;12.12;86.64
69842;BME280;57138;51.326;-0.068;2023-08-31T06:33:15;99221.06;;;12.14;86.27
69842;BME280;57138;51.326;-0.068;2023-08-31T06:35:45;99210.34;;;12.14;86.07
69842;BME280;57138;51.326;-0.068;2023-08-31T06:38:11;99219.28;;;12.27;85.71
69842;BME280;57138;51.326;-0.068;2023-08-31T06:40:42;99214.63;;;12.34;86.09
69842;BME280;57138;51.326;-0.068;2023-08-31T06:43:07;99210.47;;;12.38;85.91
69842;BME280;57138;51.326;-0.068;2023-08-31T06:45:32;99213.75;;;12.40;85.30
69842;BME280;57138;51.326;-0.068;2023-08-31T06:48:00;99210.16;;;12.46;84.91
69842;BME280;57138;51.326;-0.068;2023-08-31T06:50:26;99224.75;;;12.50;84.83
69842;BME280;57138;51.326;-0.068;2023-08-31T06:52:51;99222.31;;;12.49;84.62
69842;BME280;57138;51.326;-0.068;2023-08-31T06:55:17;99222.66;;;12.52;84.31
69842;BME280;57138;51.326;-0.068;2023-08-31T06:57:42;99218.13;;;12.53;84.48
69842;BME280;57138;51.326;-0.068;2023-08-31T07:00:09;99226.75;;;12.55;84.29
69842;BME280;57138;51.326;-0.068;2023-08-31T07:02:39;99221.28;;;12.50;83.98
69842;BME280;57138;51.326;-0.068;2023-08-31T07:05:05;99224.31;;;12.53;83.77
69842;BME280;57138;51.326;-0.068;2023-08-31T07:07:31;99225.97;;;12.54;83.66
69842;BME280;57138;51.326;-0.068;2023-08-31T07:09:56;99232.47;;;12.58;83.44
69842;BME280;57138;51.326;-0.068;2023-08-31T07:12:22;99223.41;;;12.59;83.43
69842;BME280;57138;51.326;-0.068;2023-08-31T07:14:47;99230.78;;;12.64;83.25
69842;BME280;57138;51.326;-0.068;2023-08-31T07:17:12;99231.13;;;12.68;83.21
69842;BME280;57138;51.326;-0.068;2023-08-31T07:19:38;99232.31;;;12.72;82.96
69842;BME280;57138;51.326;-0.068;2023-08-31T07:22:04;99228.13;;;12.76;82.43
69842;BME280;57138;51.326;-0.068;2023-08-31T07:24:31;99223.50;;;12.83;82.66
69842;BME280;57138;51.326;-0.068;2023-08-31T07:26:57;99223.03;;;12.86;82.65
69842;BME280;57138;51.326;-0.068;2023-08-31T07:29:22;99233.59;;;13.00;82.01
69842;BME280;57138;51.326;-0.068;2023-08-31T07:31:48;99229.28;;;12.99;81.88
69842;BME280;57138;51.326;-0.068;2023-08-31T07:34:13;99239.66;;;13.07;81.70
69842;BME280;57138;51.326;-0.068;2023-08-31T07:36:38;99231.78;;;13.12;81.72
69842;BME280;57138;51.326;-0.068;2023-08-31T07:39:04;99241.25;;;13.26;81.81
69842;BME280;57138;51.326;-0.068;2023-08-31T07:41:30;99235.56;;;13.35;81.19
69842;BME280;57138;51.326;-0.068;2023-08-31T07:43:55;99244.94;;;13.44;81.04
69842;BME280;57138;51.326;-0.068;2023-08-31T07:46:21;99246.34;;;13.58;80.82
69842;BME280;57138;51.326;-0.068;2023-08-31T07:48:46;99249.75;;;13.65;80.27
69842;BME280;57138;51.326;-0.068;2023-08-31T07:51:14;99238.66;;;13.74;80.43
69842;BME280;57138;51.326;-0.068;2023-08-31T07:53:39;99227.44;;;13.77;79.48
69842;BME280;57138;51.326;-0.068;2023-08-31T07:56:05;99240.50;;;13.85;79.42
69842;BME280;57138;51.326;-0.068;2023-08-31T07:58:30;99242.25;;;13.91;78.88
69842;BME280;57138;51.326;-0.068;2023-08-31T08:00:56;99231.28;;;13.93;78.20
69842;BME280;57138;51.326;-0.068;2023-08-31T08:03:22;99219.94;;;13.91;78.07
69842;BME280;57138;51.326;-0.068;2023-08-31T08:05:47;99227.88;;;13.97;78.36
69842;BME280;57138;51.326;-0.068;2023-08-31T08:08:13;99228.03;;;14.02;77.88
69842;BME280;57138;51.326;-0.068;2023-08-31T08:10:38;99217.50;;;14.01;77.57
69842;BME280;57138;51.326;-0.068;2023-08-31T08:13:04;99219.47;;;14.06;77.71
69842;BME280;57138;51.326;-0.068;2023-08-31T08:15:30;99222.16;;;14.06;76.35
69842;BME280;57138;51.326;-0.068;2023-08-31T08:17:56;99227.31;;;14.07;77.25
69842;BME280;57138;51.326;-0.068;2023-08-31T08:20:25;99217.38;;;14.08;76.57
69842;BME280;57138;51.326;-0.068;2023-08-31T08:22:50;99226.47;;;14.07;76.06
69842;BME280;57138;51.326;-0.068;2023-08-31T08:25:20;99225.91;;;14.05;75.99
69842;BME280;57138;51.326;-0.068;2023-08-31T08:27:46;99222.75;;;14.08;75.76
69842;BME280;57138;51.326;-0.068;2023-08-31T08:30:13;99216.44;;;14.02;75.94
69842;BME280;57138;51.326;-0.068;2023-08-31T08:32:38;99216.66;;;14.00;75.11
69842;BME280;57138;51.326;-0.068;2023-08-31T08:35:04;99222.28;;;13.99;75.10
69842;BME280;57138;51.326;-0.068;2023-08-31T08:37:31;99240.50;;;14.09;75.68
69842;BME280;57138;51.326;-0.068;2023-08-31T08:40:01;99232.56;;;14.14;75.47
69842;BME280;57138;51.326;-0.068;2023-08-31T08:42:32;99232.66;;;14.19;75.39
69842;BME280;57138;51.326;-0.068;2023-08-31T08:44:59;99242.94;;;14.22;75.00
69842;BME280;57138;51.326;-0.068;2023-08-31T08:47:25;99241.50;;;14.31;75.19
69842;BME280;57138;51.326;-0.068;2023-08-31T08:49:53;99229.59;;;14.27;74.62
69842;BME280;57138;51.326;-0.068;2023-08-31T08:52:22;99240.72;;;14.31;74.64
69842;BME280;57138;51.326;-0.068;2023-08-31T08:54:49;99240.00;;;14.35;74.46
69842;BME280;57138;51.326;-0.068;2023-08-31T08:57:14;99244.91;;;14.38;75.05
69842;BME280;57138;51.326;-0.068;2023-08-31T08:59:40;99228.53;;;14.28;75.08
69842;BME280;57138;51.326;-0.068;2023-08-31T09:02:08;99247.59;;;14.38;74.36
69842;BME280;57138;51.326;-0.068;2023-08-31T09:04:36;99249.09;;;14.34;74.01
69842;BME280;57138;51.326;-0.068;2023-08-31T09:07:02;99249.09;;;14.34;75.03
69842;BME280;57138;51.326;-0.068;2023-08-31T09:09:28;99240.34;;;14.27;74.54
69842;BME280;57138;51.326;-0.068;2023-08-31T09:11:54;99236.50;;;14.23;74.81
69842;BME280;57138;51.326;-0.068;2023-08-31T09:14:24;99236.66;;;14.16;74.56
69842;BME280;57138;51.326;-0.068;2023-08-31T09:16:51;99238.50;;;14.16;75.57
69842;BME280;57138;51.326;-0.068;2023-08-31T09:19:24;99233.97;;;14.16;76.35
69842;BME280;57138;51.326;-0.068;2023-08-31T09:21:51;99237.22;;;14.18;77.02
69842;BME280;57138;51.326;-0.068;2023-08-31T09:24:16;99235.34;;;14.19;77.60
69842;BME280;57138;51.326;-0.068;2023-08-31T09:26:48;99234.88;;;14.22;77.92
69842;BME280;57138;51.326;-0.068;2023-08-31T09:29:14;99230.81;;;14.19;77.82
69842;BME280;57138;51.326;-0.068;2023-08-31T09:31:46;99234.88;;;14.22;78.23
69842;BME280;57138;51.326;-0.068;2023-08-31T09:34:16;99220.03;;;14.19;79.17
69842;BME280;57138;51.326;-0.068;2023-08-31T09:36:43;99223.88;;;14.24;79.40
69842;BME280;57138;51.326;-0.068;2023-08-31T09:39:13;99210.00;;;14.15;79.50
69842;BME280;57138;51.326;-0.068;2023-08-31T09:41:57;99222.50;;;14.21;80.80
69842;BME280;57138;51.326;-0.068;2023-08-31T09:44:27;99224.13;;;14.22;82.99
69842;BME280;57138;51.326;-0.068;2023-08-31T09:46:53;99220.53;;;14.16;83.81
69842;BME280;57138;51.326;-0.068;2023-08-31T09:49:20;99220.38;;;14.23;85.94
69842;BME280;57138;51.326;-0.068;2023-08-31T09:51:49;99227.75;;;14.28;85.52
69842;BME280;57138;51.326;-0.068;2023-08-31T09:54:19;99233.13;;;14.28;86.21
69842;BME280;57138;51.326;-0.068;2023-08-31T09:56:47;99236.84;;;14.27;87.05
69842;BME280;57138;51.326;-0.068;2023-08-31T09:59:16;99224.69;;;14.24;87.07
69842;BME280;57138;51.326;-0.068;2023-08-31T10:01:45;99232.88;;;14.29;87.61
69842;BME280;57138;51.326;-0.068;2023-08-31T10:04:13;99233.13;;;14.28;88.00
69842;BME280;57138;51.326;-0.068;2023-08-31T10:06:40;99230.66;;;14.26;88.88
69842;BME280;57138;51.326;-0.068;2023-08-31T10:09:09;99226.78;;;14.34;91.44
69842;BME280;57138;51.326;-0.068;2023-08-31T10:11:35;99236.59;;;14.40;89.39
69842;BME280;57138;51.326;-0.068;2023-08-31T10:14:03;99229.66;;;14.44;88.25
69842;BME280;57138;51.326;-0.068;2023-08-31T10:16:30;99237.97;;;14.43;90.20
69842;BME280;57138;51.326;-0.068;2023-08-31T10:18:56;99224.66;;;14.48;90.88
69842;BME280;57138;51.326;-0.068;2023-08-31T10:21:22;99220.53;;;14.57;90.16
69842;BME280;57138;51.326;-0.068;2023-08-31T10:23:49;99235.03;;;14.68;90.95
69842;BME280;57138;51.326;-0.068;2023-08-31T10:26:29;99227.47;;;14.82;93.46
69842;BME280;57138;51.326;-0.068;2023-08-31T10:28:56;99207.56;;;14.83;89.94
69842;BME280;57138;51.326;-0.068;2023-08-31T10:31:22;99221.16;;;15.05;90.62
69842;BME280;57138;51.326;-0.068;2023-08-31T10:34:02;99219.56;;;15.21;91.82
69842;BME280;57138;51.326;-0.068;2023-08-31T10:39:06;99206.66;;;15.40;90.99
69842;BME280;57138;51.326;-0.068;2023-08-31T10:41:34;99208.38;;;15.46;89.39
69842;BME280;57138;51.326;-0.068;2023-08-31T10:44:01;99209.69;;;15.43;90.91
69842;BME280;57138;51.326;-0.068;2023-08-31T10:46:34;99215.06;;;15.60;91.28
69842;BME280;57138;51.326;-0.068;2023-08-31T10:49:14;99214.16;;;15.72;91.46
69842;BME280;57138;51.326;-0.068;2023-08-31T10:51:40;99204.84;;;15.79;87.30
69842;BME280;57138;51.326;-0.068;2023-08-31T10:54:49;99193.97;;;15.74;91.88
69842;BME280;57138;51.326;-0.068;2023-08-31T10:57:29;99200.19;;;15.75;90.38
69842;BME280;57138;51.326;-0.068;2023-08-31T10:59:56;99197.59;;;15.80;87.17
69842;BME280;57138;51.326;-0.068;2023-08-31T11:02:36;99189.41;;;15.75;89.47
69842;BME280;57138;51.326;-0.068;2023-08-31T11:05:13;99202.16;;;15.79;86.33
69842;BME280;57138;51.326;-0.068;2023-08-31T11:10:18;99197.03;;;15.78;85.78
69842;BME280;57138;51.326;-0.068;2023-08-31T11:12:47;99192.94;;;15.75;85.45
69842;BME280;57138;51.326;-0.068;2023-08-31T11:15:14;99203.88;;;15.86;86.08
69842;BME280;57138;51.326;-0.068;2023-08-31T11:17:41;99191.94;;;15.81;86.25
69842;BME280;57138;51.326;-0.068;2023-08-31T11:20:08;99199.13;;;15.93;86.56
69842;BME280;57138;51.326;-0.068;2023-08-31T11:22:38;99209.03;;;16.09;87.83
69842;BME280;57138;51.326;-0.068;2023-08-31T11:25:07;99197.84;;;16.17;87.94
69842;BME280;57138;51.326;-0.068;2023-08-31T11:27:33;99184.97;;;16.25;87.05
69842;BME280;57138;51.326;-0.068;2023-08-31T11:29:58;99194.28;;;16.39;86.10
69842;BME280;57138;51.326;-0.068;2023-08-31T11:32:24;99185.69;;;16.42;85.65
69842;BME280;57138;51.326;-0.068;2023-08-31T11:34:50;99193.66;;;16.54;84.72
69842;BME280;57138;51.326;-0.068;2023-08-31T11:37:16;99184.69;;;16.48;83.01
69842;BME280;57138;51.326;-0.068;2023-08-31T11:39:53;99195.81;;;16.52;85.65
69842;BME280;57138;51.326;-0.068;2023-08-31T11:42:20;99190.09;;;16.48;84.55
69842;BME280;57138;51.326;-0.068;2023-08-31T11:44:49;99182.56;;;16.50;85.04
69842;BME280;57138;51.326;-0.068;2023-08-31T11:47:15;99193.47;;;16.61;85.57
69842;BME280;57138;51.326;-0.068;2023-08-31T11:49:42;99195.16;;;16.67;82.06
69842;BME280;57138;51.326;-0.068;2023-08-31T11:52:10;99182.66;;;16.61;79.01
69842;BME280;57138;51.326;-0.068;2023-08-31T11:54:41;99173.34;;;16.46;78.08
69842;BME280;57138;51.326;-0.068;2023-08-31T11:57:10;99183.06;;;16.47;81.37
69842;BME280;57138;51.326;-0.068;2023-08-31T11:59:37;99170.66;;;16.46;80.60
69842;BME280;57138;51.326;-0.068;2023-08-31T12:02:07;99186.72;;;16.58;80.15
69842;BME280;57138;51.326;-0.068;2023-08-31T12:04:45;99182.56;;;16.50;77.64
69842;BME280;57138;51.326;-0.068;2023-08-31T12:07:12;99177.34;;;16.44;78.51
69842;BME280;57138;51.326;-0.068;2023-08-31T12:09:41;99174.31;;;16.35;78.37
69842;BME280;57138;51.326;-0.068;2023-08-31T12:12:10;99171.84;;;16.33;78.51
69842;BME280;57138;51.326;-0.068;2023-08-31T12:14:37;99174.84;;;16.37;81.42
69842;BME280;57138;51.326;-0.068;2023-08-31T12:17:06;99181.13;;;16.43;80.59
69842;BME280;57138;51.326;-0.068;2023-08-31T12:19:33;99184.88;;;16.42;82.27
69842;BME280;57138;51.326;-0.068;2023-08-31T12:21:58;99186.28;;;16.44;81.72
69842;BME280;57138;51.326;-0.068;2023-08-31T12:24:24;99180.31;;;16.42;79.48
69842;BME280;57138;51.326;-0.068;2023-08-31T12:26:53;99188.03;;;16.33;79.71
69842;BME280;57138;51.326;-0.068;2023-08-31T12:29:19;99183.34;;;16.24;80.07
69842;BME280;57138;51.326;-0.068;2023-08-31T12:31:45;99171.88;;;16.11;80.15
69842;BME280;57138;51.326;-0.068;2023-08-31T12:34:10;99171.78;;;16.06;80.98
69842;BME280;57138;51.326;-0.068;2023-08-31T12:36:39;99181.00;;;16.10;80.81
69842;BME280;57138;51.326;-0.068;2023-08-31T12:39:07;99177.31;;;16.16;81.74
69842;BME280;57138;51.326;-0.068;2023-08-31T12:41:39;99173.06;;;16.21;81.28
69842;BME280;57138;51.326;-0.068;2023-08-31T12:44:06;99175.63;;;16.32;79.92
69842;BME280;57138;51.326;-0.068;2023-08-31T12:46:32;99159.38;;;16.27;81.56
69842;BME280;57138;51.326;-0.068;2023-08-31T12:49:02;99163.22;;;16.31;80.73
69842;BME280;57138;51.326;-0.068;2023-08-31T12:51:31;99168.06;;;16.34;79.13
69842;BME280;57138;51.326;-0.068;2023-08-31T12:53:57;99169.47;;;16.37;79.30
69842;BME280;57138;51.326;-0.068;2023-08-31T12:56:23;99153.44;;;16.25;80.19
69842;BME280;57138;51.326;-0.068;2023-08-31T12:58:52;99149.41;;;16.28;80.85